AFL677 LTAI-URKK
Flight info
| Callsign | AFL677 |
|---|---|
| Flight time | 1h 42m |
| Altitude | 34000 |
| Route | HISAR1K/18L HISAR UW77 BAG/N0456F350 UT61 SIN UW96 ODIRA G487 KEPOL G901 AG B950 SIBAN |
| Aircraft | A320/M-SDE2E3FGHIJ1RWY/LB1U1 |
Departure
| Time | 2026-05-05 15:59 |
|---|---|
| Airport | Antalya International Airport (LTAI) |
Arrival
| Time | 2026-05-05 17:41 |
|---|---|
| Airport | Krasnodar Pashkovsky International Airport (URKK) |
| Time | Latitude | Longitude | Altitude | Speed | Heading |
|---|---|---|---|---|---|
| 2026-05-05 15:21 | 36.89711 | 30.80220 | 205 ft | 0 kts | 317° |
| 2026-05-05 15:22 | 36.89711 | 30.80221 | 205 ft | 0 kts | 317° |
| 2026-05-05 15:34 | 36.89710 | 30.80221 | 192 ft | 0 kts | 317° |
| 2026-05-05 15:47 | 36.89696 | 30.80238 | 194 ft | 4 kts | 316° |
| 2026-05-05 15:48 | 36.89676 | 30.80262 | 203 ft | 4 kts | 316° |
| 2026-05-05 15:48 | 36.89656 | 30.80285 | 196 ft | 4 kts | 321° |
| 2026-05-05 15:48 | 36.89634 | 30.80302 | 202 ft | 4 kts | 349° |
| 2026-05-05 15:48 | 36.89615 | 30.80303 | 199 ft | 4 kts | 348° |
| 2026-05-05 15:49 | 36.89595 | 30.80319 | 204 ft | 4 kts | 314° |
| 2026-05-05 15:49 | 36.89580 | 30.80337 | 206 ft | 4 kts | 326° |
| 2026-05-05 15:49 | 36.89556 | 30.80351 | 203 ft | 4 kts | 350° |
| 2026-05-05 15:49 | 36.89530 | 30.80352 | 205 ft | 4 kts | 8° |
| 2026-05-05 15:50 | 36.89510 | 30.80348 | 204 ft | 0 kts | 7° |
| 2026-05-05 15:51 | 36.89509 | 30.80348 | 204 ft | 0 kts | 7° |
| 2026-05-05 15:53 | 36.89523 | 30.80350 | 204 ft | 6 kts | 7° |
| 2026-05-05 15:53 | 36.89559 | 30.80359 | 200 ft | 5 kts | 21° |
| 2026-05-05 15:53 | 36.89580 | 30.80394 | 195 ft | 8 kts | 75° |
| 2026-05-05 15:53 | 36.89574 | 30.80483 | 192 ft | 11 kts | 96° |
| 2026-05-05 15:54 | 36.89567 | 30.80570 | 192 ft | 9 kts | 96° |
| 2026-05-05 15:54 | 36.89561 | 30.80645 | 199 ft | 8 kts | 89° |
| 2026-05-05 15:54 | 36.89588 | 30.80695 | 198 ft | 7 kts | 25° |
| 2026-05-05 15:54 | 36.89637 | 30.80702 | 191 ft | 10 kts | 5° |
| 2026-05-05 15:55 | 36.89720 | 30.80712 | 196 ft | 14 kts | 5° |
| 2026-05-05 15:55 | 36.89835 | 30.80727 | 200 ft | 19 kts | 6° |
| 2026-05-05 15:55 | 36.89968 | 30.80746 | 195 ft | 18 kts | 6° |
| 2026-05-05 15:55 | 36.90087 | 30.80762 | 192 ft | 16 kts | 6° |
| 2026-05-05 15:56 | 36.90195 | 30.80777 | 203 ft | 15 kts | 6° |
| 2026-05-05 15:56 | 36.90294 | 30.80791 | 194 ft | 14 kts | 6° |
| 2026-05-05 15:56 | 36.90399 | 30.80805 | 198 ft | 17 kts | 6° |
| 2026-05-05 15:56 | 36.90527 | 30.80822 | 194 ft | 18 kts | 6° |
| 2026-05-05 15:57 | 36.90645 | 30.80839 | 191 ft | 13 kts | 6° |
| 2026-05-05 15:57 | 36.90694 | 30.80884 | 206 ft | 9 kts | 79° |
| 2026-05-05 15:57 | 36.90681 | 30.80925 | 206 ft | 7 kts | 131° |
| 2026-05-05 15:57 | 36.90635 | 30.80955 | 198 ft | 9 kts | 156° |
| 2026-05-05 15:58 | 36.90581 | 30.81013 | 200 ft | 10 kts | 105° |
| 2026-05-05 15:58 | 36.90555 | 30.81064 | 190 ft | 6 kts | 184° |
| 2026-05-05 15:58 | 36.90444 | 30.81047 | 202 ft | 38 kts | 186° |
| 2026-05-05 15:58 | 36.89933 | 30.80977 | 195 ft | 106 kts | 186° |
| 2026-05-05 15:59 | 36.89017 | 30.80848 | 220 ft | 154 kts | 187° |
| 2026-05-05 15:59 | 36.87947 | 30.80790 | 870 ft | 153 kts | 175° |
| 2026-05-05 15:59 | 36.87243 | 30.80890 | 1339 ft | 155 kts | 174° |
| 2026-05-05 15:59 | 36.86169 | 30.81081 | 2010 ft | 157 kts | 172° |
| 2026-05-05 16:00 | 36.85084 | 30.81290 | 2571 ft | 160 kts | 170° |
| 2026-05-05 16:00 | 36.83972 | 30.81507 | 3108 ft | 164 kts | 170° |
| 2026-05-05 16:00 | 36.82807 | 30.81722 | 3471 ft | 179 kts | 171° |
| 2026-05-05 16:00 | 36.81494 | 30.81961 | 3712 ft | 201 kts | 170° |
| 2026-05-05 16:01 | 36.80031 | 30.82244 | 3968 ft | 224 kts | 169° |
| 2026-05-05 16:01 | 36.78494 | 30.82966 | 4253 ft | 250 kts | 152° |
| 2026-05-05 16:01 | 36.76868 | 30.83972 | 4722 ft | 271 kts | 152° |
| 2026-05-05 16:01 | 36.75195 | 30.85146 | 5412 ft | 279 kts | 139° |
| 2026-05-05 16:02 | 36.74013 | 30.87005 | 6170 ft | 281 kts | 110° |
| 2026-05-05 16:02 | 36.73610 | 30.89367 | 6987 ft | 280 kts | 90° |
| 2026-05-05 16:02 | 36.73473 | 30.91804 | 7819 ft | 284 kts | 91° |
| 2026-05-05 16:02 | 36.73304 | 30.94288 | 8593 ft | 290 kts | 94° |
| 2026-05-05 16:03 | 36.73099 | 30.96814 | 9392 ft | 296 kts | 94° |
| 2026-05-05 16:03 | 36.72876 | 30.99380 | 10162 ft | 301 kts | 93° |
| 2026-05-05 16:03 | 36.72645 | 31.02042 | 10546 ft | 320 kts | 93° |
| 2026-05-05 16:03 | 36.72477 | 31.04892 | 10823 ft | 339 kts | 85° |
| 2026-05-05 16:04 | 36.72966 | 31.07804 | 11218 ft | 349 kts | 65° |
| 2026-05-05 16:04 | 36.74179 | 31.10413 | 11844 ft | 349 kts | 47° |
| 2026-05-05 16:04 | 36.75949 | 31.12474 | 12503 ft | 350 kts | 32° |
| 2026-05-05 16:04 | 36.78118 | 31.13755 | 13102 ft | 352 kts | 13° |
| 2026-05-05 16:05 | 36.80517 | 31.14425 | 13731 ft | 357 kts | 10° |
| 2026-05-05 16:05 | 36.82950 | 31.15119 | 14356 ft | 360 kts | 11° |
| 2026-05-05 16:05 | 36.85397 | 31.15859 | 14983 ft | 364 kts | 11° |
| 2026-05-05 16:05 | 36.87861 | 31.16621 | 15616 ft | 367 kts | 11° |
| 2026-05-05 16:06 | 36.90350 | 31.17394 | 16229 ft | 370 kts | 11° |
| 2026-05-05 16:06 | 36.92861 | 31.18164 | 16833 ft | 374 kts | 11° |
| 2026-05-05 16:06 | 36.95401 | 31.18931 | 17447 ft | 377 kts | 11° |
| 2026-05-05 16:06 | 36.97962 | 31.19695 | 18056 ft | 380 kts | 11° |
| 2026-05-05 16:07 | 37.00544 | 31.20461 | 18610 ft | 383 kts | 11° |
| 2026-05-05 16:07 | 37.03143 | 31.21235 | 19145 ft | 385 kts | 11° |
| 2026-05-05 16:07 | 37.05757 | 31.22016 | 19628 ft | 387 kts | 10° |
| 2026-05-05 16:07 | 37.08348 | 31.22791 | 20140 ft | 389 kts | 10° |
| 2026-05-05 16:08 | 37.11022 | 31.23590 | 20672 ft | 391 kts | 10° |
| 2026-05-05 16:08 | 37.13639 | 31.24371 | 21191 ft | 393 kts | 9° |
| 2026-05-05 16:08 | 37.16309 | 31.25170 | 21748 ft | 395 kts | 9° |
| 2026-05-05 16:08 | 37.18984 | 31.25973 | 22271 ft | 396 kts | 9° |
| 2026-05-05 16:09 | 37.21672 | 31.26780 | 22772 ft | 399 kts | 9° |
| 2026-05-05 16:09 | 37.24379 | 31.27592 | 23265 ft | 401 kts | 9° |
| 2026-05-05 16:09 | 37.27103 | 31.28410 | 23730 ft | 404 kts | 9° |
| 2026-05-05 16:09 | 37.29843 | 31.29235 | 24140 ft | 406 kts | 8° |
| 2026-05-05 16:10 | 37.32599 | 31.30065 | 24500 ft | 409 kts | 8° |
| 2026-05-05 16:10 | 37.35372 | 31.30901 | 24881 ft | 411 kts | 9° |
| 2026-05-05 16:10 | 37.38162 | 31.31744 | 25233 ft | 413 kts | 9° |
| 2026-05-05 16:10 | 37.40967 | 31.32591 | 25593 ft | 416 kts | 9° |
| 2026-05-05 16:11 | 37.43788 | 31.33441 | 25940 ft | 418 kts | 8° |
| 2026-05-05 16:11 | 37.52308 | 31.36012 | 26965 ft | 425 kts | 8° |
| 2026-05-05 16:12 | 37.55190 | 31.36883 | 27324 ft | 427 kts | 9° |
| 2026-05-05 16:12 | 37.60989 | 31.38650 | 28041 ft | 431 kts | 9° |
| 2026-05-05 16:13 | 37.69798 | 31.41322 | 28992 ft | 437 kts | 9° |
| 2026-05-05 16:13 | 37.72766 | 31.42223 | 29280 ft | 439 kts | 8° |
| 2026-05-05 16:13 | 37.75741 | 31.43127 | 29615 ft | 441 kts | 9° |
| 2026-05-05 16:14 | 37.81731 | 31.44960 | 30189 ft | 445 kts | 9° |
| 2026-05-05 16:14 | 37.87718 | 31.46790 | 30744 ft | 446 kts | 9° |
| 2026-05-05 16:15 | 37.93730 | 31.48635 | 31455 ft | 444 kts | 10° |
| 2026-05-05 16:15 | 37.99715 | 31.50476 | 32147 ft | 442 kts | 10° |
| 2026-05-05 16:16 | 38.05684 | 31.52302 | 32829 ft | 441 kts | 9° |
| 2026-05-05 16:16 | 38.11583 | 31.54279 | 33674 ft | 438 kts | 17° |
| 2026-05-05 16:17 | 38.17102 | 31.57584 | 34050 ft | 437 kts | 22° |
| 2026-05-05 16:17 | 38.19820 | 31.59297 | 34055 ft | 435 kts | 22° |
| 2026-05-05 16:18 | 38.27952 | 31.64415 | 34049 ft | 435 kts | 22° |
| 2026-05-05 16:19 | 38.36041 | 31.69526 | 34050 ft | 435 kts | 22° |
| 2026-05-05 16:19 | 38.44158 | 31.74691 | 34061 ft | 434 kts | 23° |
| 2026-05-05 16:20 | 38.54972 | 31.81545 | 34066 ft | 433 kts | 22° |
| 2026-05-05 16:22 | 38.68365 | 31.90081 | 34080 ft | 429 kts | 22° |
| 2026-05-05 16:23 | 38.79032 | 31.96919 | 34074 ft | 428 kts | 22° |
| 2026-05-05 16:23 | 38.87010 | 32.02033 | 34065 ft | 427 kts | 22° |
| 2026-05-05 16:24 | 38.92319 | 32.05457 | 34059 ft | 427 kts | 22° |
| 2026-05-05 16:25 | 39.00269 | 32.10580 | 34074 ft | 425 kts | 22° |
| 2026-05-05 16:25 | 39.08157 | 32.15683 | 34059 ft | 425 kts | 22° |
| 2026-05-05 16:26 | 39.18699 | 32.22514 | 34056 ft | 424 kts | 22° |
| 2026-05-05 16:27 | 39.23962 | 32.25930 | 34050 ft | 423 kts | 22° |
| 2026-05-05 16:27 | 39.29220 | 32.29350 | 34057 ft | 423 kts | 22° |
| 2026-05-05 16:28 | 39.34472 | 32.32781 | 34050 ft | 423 kts | 22° |
| 2026-05-05 16:28 | 39.39686 | 32.36188 | 34066 ft | 423 kts | 22° |
| 2026-05-05 16:29 | 39.44929 | 32.39628 | 34055 ft | 423 kts | 22° |
| 2026-05-05 16:29 | 39.50165 | 32.43091 | 34045 ft | 423 kts | 22° |
| 2026-05-05 16:30 | 39.55404 | 32.46552 | 34040 ft | 423 kts | 22° |
| 2026-05-05 16:30 | 39.60639 | 32.50017 | 34037 ft | 422 kts | 22° |
| 2026-05-05 16:31 | 39.65873 | 32.53484 | 34172 ft | 422 kts | 22° |
| 2026-05-05 16:31 | 39.68488 | 32.55226 | 34406 ft | 423 kts | 23° |
| 2026-05-05 16:31 | 39.71111 | 32.56973 | 34632 ft | 424 kts | 23° |
| 2026-05-05 16:32 | 39.73703 | 32.58701 | 34865 ft | 425 kts | 23° |
| 2026-05-05 16:32 | 39.76338 | 32.60455 | 34990 ft | 427 kts | 23° |
| 2026-05-05 16:32 | 39.81623 | 32.63977 | 35017 ft | 427 kts | 23° |
| 2026-05-05 16:33 | 39.86907 | 32.67507 | 35012 ft | 427 kts | 23° |
| 2026-05-05 16:33 | 39.92188 | 32.71042 | 35008 ft | 427 kts | 23° |
| 2026-05-05 16:34 | 39.97473 | 32.74576 | 35013 ft | 427 kts | 23° |
| 2026-05-05 16:34 | 40.02757 | 32.78123 | 35011 ft | 427 kts | 23° |
| 2026-05-05 16:35 | 40.07908 | 32.82015 | 35009 ft | 432 kts | 34° |
| 2026-05-05 16:35 | 40.12481 | 32.87080 | 35003 ft | 434 kts | 36° |
| 2026-05-05 16:36 | 40.17063 | 32.92225 | 34996 ft | 434 kts | 36° |
| 2026-05-05 16:36 | 40.21644 | 32.97359 | 35016 ft | 434 kts | 36° |
| 2026-05-05 16:37 | 40.26231 | 33.02505 | 35006 ft | 434 kts | 36° |
| 2026-05-05 16:37 | 40.30809 | 33.07651 | 35001 ft | 434 kts | 36° |
| 2026-05-05 16:38 | 40.35354 | 33.12771 | 35016 ft | 434 kts | 37° |
| 2026-05-05 16:38 | 40.39923 | 33.17931 | 35013 ft | 434 kts | 37° |
| 2026-05-05 16:39 | 40.44493 | 33.23101 | 35006 ft | 433 kts | 37° |
| 2026-05-05 16:39 | 40.49057 | 33.28266 | 35021 ft | 433 kts | 37° |
| 2026-05-05 16:40 | 40.53623 | 33.33443 | 35025 ft | 433 kts | 37° |
| 2026-05-05 16:40 | 40.58178 | 33.38631 | 35019 ft | 433 kts | 37° |
| 2026-05-05 16:41 | 40.62725 | 33.43828 | 35025 ft | 433 kts | 37° |
| 2026-05-05 16:41 | 40.67243 | 33.48980 | 35017 ft | 433 kts | 37° |
| 2026-05-05 16:42 | 40.71792 | 33.54168 | 35010 ft | 432 kts | 37° |
| 2026-05-05 16:42 | 40.76332 | 33.59365 | 35016 ft | 432 kts | 38° |
| 2026-05-05 16:43 | 40.80873 | 33.64579 | 35012 ft | 433 kts | 38° |
| 2026-05-05 16:43 | 40.85409 | 33.69808 | 35007 ft | 433 kts | 38° |
| 2026-05-05 16:44 | 40.89913 | 33.75013 | 35020 ft | 433 kts | 38° |
| 2026-05-05 16:44 | 40.94446 | 33.80243 | 35005 ft | 433 kts | 38° |
| 2026-05-05 16:45 | 40.98985 | 33.85489 | 35007 ft | 433 kts | 38° |
| 2026-05-05 16:45 | 41.03527 | 33.90746 | 35005 ft | 433 kts | 38° |
| 2026-05-05 16:46 | 41.08061 | 33.96013 | 35000 ft | 434 kts | 39° |
| 2026-05-05 16:46 | 41.12600 | 34.01290 | 34998 ft | 434 kts | 39° |
| 2026-05-05 16:47 | 41.17111 | 34.06550 | 35003 ft | 435 kts | 39° |
| 2026-05-05 16:47 | 41.21654 | 34.11852 | 35005 ft | 435 kts | 39° |
| 2026-05-05 16:48 | 41.26202 | 34.17176 | 35001 ft | 436 kts | 39° |
| 2026-05-05 16:48 | 41.30754 | 34.22513 | 35000 ft | 436 kts | 39° |
| 2026-05-05 16:49 | 41.35302 | 34.27860 | 35016 ft | 436 kts | 39° |
| 2026-05-05 16:49 | 41.39834 | 34.33220 | 35034 ft | 435 kts | 39° |
| 2026-05-05 16:50 | 41.44323 | 34.38537 | 35035 ft | 435 kts | 39° |
| 2026-05-05 16:50 | 41.48842 | 34.43891 | 35038 ft | 435 kts | 40° |
| 2026-05-05 16:51 | 41.53363 | 34.49258 | 35019 ft | 435 kts | 40° |
| 2026-05-05 16:51 | 41.57883 | 34.54641 | 35017 ft | 435 kts | 40° |
| 2026-05-05 16:52 | 41.62415 | 34.60014 | 35025 ft | 436 kts | 40° |
| 2026-05-05 16:52 | 41.66966 | 34.65389 | 35024 ft | 437 kts | 40° |
| 2026-05-05 16:53 | 41.71489 | 34.70746 | 35030 ft | 437 kts | 40° |
| 2026-05-05 16:53 | 41.76044 | 34.76160 | 35034 ft | 438 kts | 40° |
| 2026-05-05 16:54 | 41.80597 | 34.81582 | 35050 ft | 438 kts | 40° |
| 2026-05-05 16:54 | 41.85152 | 34.87021 | 35061 ft | 439 kts | 40° |
| 2026-05-05 16:55 | 41.89710 | 34.92472 | 35070 ft | 439 kts | 40° |
| 2026-05-05 16:55 | 41.94265 | 34.97938 | 35082 ft | 439 kts | 41° |
| 2026-05-05 16:56 | 41.98792 | 35.03378 | 35084 ft | 440 kts | 41° |
| 2026-05-05 16:56 | 42.02903 | 35.09456 | 35085 ft | 442 kts | 56° |
| 2026-05-05 16:57 | 42.05808 | 35.16742 | 35087 ft | 443 kts | 62° |
| 2026-05-05 16:57 | 42.08619 | 35.24119 | 35083 ft | 443 kts | 62° |
| 2026-05-05 16:58 | 42.11423 | 35.31498 | 35077 ft | 443 kts | 62° |
| 2026-05-05 16:58 | 42.14226 | 35.38890 | 35068 ft | 443 kts | 62° |
| 2026-05-05 16:59 | 42.17027 | 35.46282 | 35057 ft | 443 kts | 62° |
| 2026-05-05 16:59 | 42.19828 | 35.53632 | 35046 ft | 444 kts | 62° |
| 2026-05-05 17:00 | 42.22648 | 35.61049 | 35043 ft | 444 kts | 62° |
| 2026-05-05 17:00 | 42.25460 | 35.68476 | 35045 ft | 444 kts | 62° |
| 2026-05-05 17:01 | 42.28264 | 35.75918 | 35044 ft | 445 kts | 63° |
| 2026-05-05 17:01 | 42.31064 | 35.83372 | 35043 ft | 445 kts | 63° |
| 2026-05-05 17:02 | 42.33862 | 35.90835 | 35047 ft | 445 kts | 63° |
| 2026-05-05 17:02 | 42.36661 | 35.98314 | 35048 ft | 446 kts | 63° |
| 2026-05-05 17:03 | 42.39432 | 36.05745 | 35051 ft | 446 kts | 63° |
| 2026-05-05 17:03 | 42.42226 | 36.13231 | 35054 ft | 445 kts | 63° |
| 2026-05-05 17:04 | 42.45005 | 36.20718 | 35051 ft | 445 kts | 63° |
| 2026-05-05 17:04 | 42.47772 | 36.28211 | 35049 ft | 445 kts | 63° |
| 2026-05-05 17:05 | 42.50533 | 36.35701 | 35041 ft | 444 kts | 64° |
| 2026-05-05 17:05 | 42.53294 | 36.43204 | 35033 ft | 445 kts | 64° |
| 2026-05-05 17:06 | 42.56053 | 36.50720 | 35029 ft | 445 kts | 64° |
| 2026-05-05 17:06 | 42.58795 | 36.58197 | 35029 ft | 446 kts | 64° |
| 2026-05-05 17:07 | 42.61552 | 36.65728 | 35027 ft | 446 kts | 64° |
| 2026-05-05 17:07 | 42.64307 | 36.73277 | 35029 ft | 446 kts | 64° |
| 2026-05-05 17:08 | 42.67054 | 36.80837 | 35032 ft | 446 kts | 64° |
| 2026-05-05 17:08 | 42.69793 | 36.88406 | 35036 ft | 446 kts | 64° |
| 2026-05-05 17:09 | 42.72414 | 36.95990 | 35031 ft | 446 kts | 67° |
| 2026-05-05 17:09 | 42.74790 | 37.03785 | 35032 ft | 446 kts | 69° |
| 2026-05-05 17:10 | 42.77093 | 37.11611 | 35035 ft | 446 kts | 69° |
| 2026-05-05 17:10 | 42.79448 | 37.19421 | 35033 ft | 446 kts | 68° |
| 2026-05-05 17:11 | 42.81836 | 37.27211 | 35030 ft | 446 kts | 69° |
| 2026-05-05 17:11 | 42.84209 | 37.34964 | 35023 ft | 447 kts | 69° |
| 2026-05-05 17:12 | 42.86580 | 37.42786 | 35022 ft | 447 kts | 69° |
| 2026-05-05 17:12 | 42.88946 | 37.50632 | 35024 ft | 447 kts | 69° |
| 2026-05-05 17:13 | 42.91306 | 37.58476 | 35024 ft | 447 kts | 69° |
| 2026-05-05 17:13 | 42.93665 | 37.66333 | 35030 ft | 447 kts | 69° |
| 2026-05-05 17:14 | 42.96005 | 37.74147 | 35030 ft | 447 kts | 69° |
| 2026-05-05 17:14 | 42.98351 | 37.82017 | 35032 ft | 447 kts | 69° |
| 2026-05-05 17:15 | 43.00678 | 37.89895 | 35024 ft | 447 kts | 70° |
| 2026-05-05 17:15 | 43.03553 | 37.97424 | 35025 ft | 450 kts | 54° |
| 2026-05-05 17:16 | 43.08113 | 38.03300 | 35024 ft | 455 kts | 36° |
| 2026-05-05 17:16 | 43.13372 | 38.08130 | 35028 ft | 455 kts | 36° |
| 2026-05-05 17:17 | 43.17735 | 38.12165 | 35016 ft | 456 kts | 36° |
| 2026-05-05 17:17 | 43.22979 | 38.17056 | 35027 ft | 456 kts | 36° |
| 2026-05-05 17:18 | 43.28225 | 38.21962 | 35021 ft | 456 kts | 36° |
| 2026-05-05 17:18 | 43.33467 | 38.26872 | 35021 ft | 457 kts | 37° |
| 2026-05-05 17:19 | 43.38717 | 38.31803 | 35009 ft | 457 kts | 37° |
| 2026-05-05 17:19 | 43.43912 | 38.36730 | 35017 ft | 457 kts | 37° |
| 2026-05-05 17:20 | 43.46524 | 38.39224 | 34914 ft | 458 kts | 37° |
| 2026-05-05 17:20 | 43.49134 | 38.41724 | 34667 ft | 457 kts | 37° |
| 2026-05-05 17:20 | 43.51746 | 38.44226 | 34036 ft | 460 kts | 37° |
| 2026-05-05 17:20 | 43.54390 | 38.46763 | 32970 ft | 465 kts | 37° |
| 2026-05-05 17:21 | 43.57051 | 38.49320 | 31989 ft | 468 kts | 37° |
| 2026-05-05 17:21 | 43.59739 | 38.51901 | 31057 ft | 471 kts | 37° |
| 2026-05-05 17:21 | 43.62422 | 38.54428 | 30516 ft | 464 kts | 36° |
| 2026-05-05 17:22 | 43.67743 | 38.59336 | 29139 ft | 454 kts | 36° |
| 2026-05-05 17:22 | 43.70353 | 38.61733 | 28512 ft | 447 kts | 36° |
| 2026-05-05 17:22 | 43.72924 | 38.64100 | 27899 ft | 441 kts | 36° |
| 2026-05-05 17:22 | 43.75421 | 38.66412 | 27301 ft | 435 kts | 36° |
| 2026-05-05 17:23 | 43.77917 | 38.68739 | 26710 ft | 430 kts | 36° |
| 2026-05-05 17:23 | 43.80381 | 38.71047 | 26123 ft | 425 kts | 36° |
| 2026-05-05 17:23 | 43.82821 | 38.73331 | 25543 ft | 421 kts | 36° |
| 2026-05-05 17:23 | 43.85234 | 38.75589 | 24981 ft | 416 kts | 36° |
| 2026-05-05 17:24 | 43.87621 | 38.77824 | 24440 ft | 412 kts | 36° |
| 2026-05-05 17:24 | 43.89984 | 38.80043 | 23916 ft | 408 kts | 36° |
| 2026-05-05 17:24 | 43.92320 | 38.82239 | 23365 ft | 404 kts | 36° |
| 2026-05-05 17:24 | 43.94631 | 38.84410 | 22854 ft | 398 kts | 36° |
| 2026-05-05 17:25 | 43.96910 | 38.86552 | 22371 ft | 393 kts | 36° |
| 2026-05-05 17:25 | 43.98402 | 38.87955 | 22062 ft | 389 kts | 36° |
| 2026-05-05 17:25 | 44.01375 | 38.90758 | 21435 ft | 383 kts | 36° |
| 2026-05-05 17:25 | 44.03567 | 38.92828 | 20975 ft | 379 kts | 36° |
| 2026-05-05 17:26 | 44.05737 | 38.94880 | 20519 ft | 375 kts | 36° |
| 2026-05-05 17:26 | 44.07858 | 38.96888 | 20052 ft | 373 kts | 36° |
| 2026-05-05 17:26 | 44.10002 | 38.98895 | 19582 ft | 370 kts | 33° |
| 2026-05-05 17:26 | 44.12320 | 39.00438 | 19111 ft | 370 kts | 20° |
| 2026-05-05 17:27 | 44.14819 | 39.01273 | 18624 ft | 371 kts | 8° |
| 2026-05-05 17:27 | 44.17396 | 39.01371 | 18098 ft | 371 kts | 356° |
| 2026-05-05 17:27 | 44.19935 | 39.00758 | 17589 ft | 370 kts | 347° |
| 2026-05-05 17:27 | 44.22433 | 38.99955 | 17093 ft | 368 kts | 348° |
| 2026-05-05 17:28 | 44.24922 | 38.99163 | 16601 ft | 366 kts | 348° |
| 2026-05-05 17:28 | 44.27396 | 38.98379 | 16108 ft | 364 kts | 348° |
| 2026-05-05 17:28 | 44.29861 | 38.97597 | 15628 ft | 363 kts | 348° |
| 2026-05-05 17:28 | 44.32315 | 38.96819 | 15147 ft | 361 kts | 348° |
| 2026-05-05 17:29 | 44.34725 | 38.96035 | 14673 ft | 360 kts | 347° |
| 2026-05-05 17:29 | 44.37146 | 38.95175 | 14194 ft | 358 kts | 346° |
| 2026-05-05 17:29 | 44.39552 | 38.94275 | 13708 ft | 357 kts | 345° |
| 2026-05-05 17:29 | 44.41944 | 38.93363 | 13193 ft | 355 kts | 345° |
| 2026-05-05 17:30 | 44.44319 | 38.92458 | 12704 ft | 352 kts | 345° |
| 2026-05-05 17:30 | 44.46674 | 38.91569 | 12218 ft | 349 kts | 345° |
| 2026-05-05 17:30 | 44.49012 | 38.90694 | 11723 ft | 347 kts | 345° |
| 2026-05-05 17:30 | 44.51338 | 38.89830 | 11228 ft | 345 kts | 345° |
| 2026-05-05 17:31 | 44.53650 | 38.88974 | 10727 ft | 343 kts | 345° |
| 2026-05-05 17:31 | 44.55945 | 38.88126 | 10391 ft | 335 kts | 344° |
| 2026-05-05 17:31 | 44.58155 | 38.87308 | 10267 ft | 322 kts | 344° |
| 2026-05-05 17:31 | 44.60283 | 38.86518 | 10144 ft | 310 kts | 344° |
| 2026-05-05 17:32 | 44.62305 | 38.85766 | 10016 ft | 300 kts | 344° |
| 2026-05-05 17:32 | 44.64299 | 38.85025 | 9761 ft | 294 kts | 344° |
| 2026-05-05 17:32 | 44.66274 | 38.84289 | 9370 ft | 293 kts | 344° |
| 2026-05-05 17:32 | 44.68240 | 38.83556 | 8977 ft | 292 kts | 344° |
| 2026-05-05 17:33 | 44.70197 | 38.82827 | 8590 ft | 290 kts | 344° |
| 2026-05-05 17:33 | 44.72147 | 38.82101 | 8201 ft | 288 kts | 344° |
| 2026-05-05 17:33 | 44.74077 | 38.81380 | 7813 ft | 286 kts | 344° |
| 2026-05-05 17:33 | 44.75999 | 38.80695 | 7433 ft | 284 kts | 349° |
| 2026-05-05 17:34 | 44.77966 | 38.80648 | 7052 ft | 283 kts | 8° |
| 2026-05-05 17:34 | 44.79839 | 38.81476 | 6672 ft | 282 kts | 21° |
| 2026-05-05 17:34 | 44.81646 | 38.82531 | 6287 ft | 280 kts | 21° |
| 2026-05-05 17:34 | 44.83438 | 38.83584 | 5890 ft | 278 kts | 24° |
| 2026-05-05 17:35 | 44.84972 | 38.85081 | 5715 ft | 268 kts | 45° |
| 2026-05-05 17:35 | 44.86116 | 38.87075 | 5587 ft | 256 kts | 52° |
| 2026-05-05 17:35 | 44.87177 | 38.89017 | 5459 ft | 245 kts | 52° |
| 2026-05-05 17:35 | 44.88197 | 38.90880 | 5334 ft | 236 kts | 52° |
| 2026-05-05 17:36 | 44.89184 | 38.92681 | 5201 ft | 228 kts | 52° |
| 2026-05-05 17:36 | 44.90137 | 38.94422 | 5075 ft | 221 kts | 52° |
| 2026-05-05 17:36 | 44.91061 | 38.96111 | 4946 ft | 214 kts | 52° |
| 2026-05-05 17:36 | 44.91947 | 38.97731 | 4755 ft | 205 kts | 52° |
| 2026-05-05 17:37 | 44.92815 | 38.99320 | 4384 ft | 203 kts | 52° |
| 2026-05-05 17:37 | 44.93666 | 39.00878 | 3909 ft | 199 kts | 52° |
| 2026-05-05 17:37 | 44.94505 | 39.02414 | 3390 ft | 196 kts | 52° |
| 2026-05-05 17:37 | 44.95321 | 39.03909 | 2881 ft | 194 kts | 53° |
| 2026-05-05 17:38 | 44.96143 | 39.05417 | 2318 ft | 193 kts | 53° |
| 2026-05-05 17:38 | 44.96953 | 39.06900 | 1882 ft | 186 kts | 53° |
| 2026-05-05 17:38 | 44.97721 | 39.08308 | 1559 ft | 174 kts | 53° |
| 2026-05-05 17:38 | 44.98413 | 39.09583 | 1372 ft | 153 kts | 53° |
| 2026-05-05 17:39 | 44.99032 | 39.10716 | 1150 ft | 140 kts | 53° |
| 2026-05-05 17:39 | 44.99608 | 39.11786 | 972 ft | 135 kts | 53° |
| 2026-05-05 17:39 | 45.00176 | 39.12829 | 825 ft | 134 kts | 53° |
| 2026-05-05 17:39 | 45.00745 | 39.13871 | 661 ft | 134 kts | 53° |
| 2026-05-05 17:40 | 45.01312 | 39.14914 | 517 ft | 134 kts | 52° |
| 2026-05-05 17:40 | 45.01879 | 39.15961 | 363 ft | 134 kts | 53° |
| 2026-05-05 17:40 | 45.02435 | 39.16995 | 207 ft | 134 kts | 53° |
| 2026-05-05 17:40 | 45.02986 | 39.18015 | 115 ft | 119 kts | 52° |
| 2026-05-05 17:41 | 45.03385 | 39.18745 | 113 ft | 72 kts | 52° |
| 2026-05-05 17:41 | 45.03647 | 39.19230 | 114 ft | 55 kts | 52° |
| 2026-05-05 17:41 | 45.03863 | 39.19626 | 115 ft | 47 kts | 52° |
| 2026-05-05 17:41 | 45.04046 | 39.19963 | 118 ft | 40 kts | 52° |
| 2026-05-05 17:42 | 45.04183 | 39.20217 | 117 ft | 17 kts | 52° |
| 2026-05-05 17:42 | 45.04240 | 39.20288 | 117 ft | 10 kts | 15° |
| 2026-05-05 17:42 | 45.04306 | 39.20254 | 112 ft | 14 kts | 322° |
| 2026-05-05 17:42 | 45.04336 | 39.20132 | 108 ft | 13 kts | 255° |
| 2026-05-05 17:43 | 45.04279 | 39.20011 | 108 ft | 19 kts | 233° |
| 2026-05-05 17:43 | 45.04181 | 39.19828 | 108 ft | 28 kts | 232° |
| 2026-05-05 17:43 | 45.04061 | 39.19604 | 108 ft | 29 kts | 233° |
| 2026-05-05 17:43 | 45.03933 | 39.19369 | 107 ft | 30 kts | 232° |
| 2026-05-05 17:44 | 45.03802 | 39.19128 | 107 ft | 32 kts | 232° |
| 2026-05-05 17:44 | 45.03667 | 39.18878 | 107 ft | 33 kts | 232° |
| 2026-05-05 17:44 | 45.03526 | 39.18618 | 107 ft | 34 kts | 232° |
| 2026-05-05 17:44 | 45.03380 | 39.18350 | 107 ft | 35 kts | 232° |
| 2026-05-05 17:45 | 45.03230 | 39.18075 | 107 ft | 36 kts | 232° |
| 2026-05-05 17:45 | 45.03077 | 39.17793 | 107 ft | 36 kts | 232° |
| 2026-05-05 17:45 | 45.02938 | 39.17536 | 107 ft | 29 kts | 232° |
| 2026-05-05 17:45 | 45.02843 | 39.17363 | 107 ft | 19 kts | 232° |
| 2026-05-05 17:46 | 45.02769 | 39.17227 | 107 ft | 11 kts | 232° |
| 2026-05-05 17:46 | 45.02771 | 39.17149 | 107 ft | 8 kts | 312° |
| 2026-05-05 17:46 | 45.02838 | 39.17076 | 106 ft | 18 kts | 322° |
| 2026-05-05 17:46 | 45.02967 | 39.16934 | 106 ft | 27 kts | 323° |
| 2026-05-05 17:47 | 45.03120 | 39.16769 | 106 ft | 28 kts | 322° |
| 2026-05-05 17:47 | 45.03281 | 39.16595 | 106 ft | 30 kts | 323° |
| 2026-05-05 17:47 | 45.03448 | 39.16414 | 106 ft | 31 kts | 322° |
| 2026-05-05 17:47 | 45.03618 | 39.16232 | 106 ft | 30 kts | 322° |
| 2026-05-05 17:48 | 45.03730 | 39.16105 | 106 ft | 11 kts | 307° |
| 2026-05-05 17:48 | 45.03739 | 39.16010 | 106 ft | 10 kts | 269° |
| 2026-05-05 17:48 | 45.03738 | 39.15878 | 106 ft | 17 kts | 269° |
| 2026-05-05 17:48 | 45.03736 | 39.15703 | 106 ft | 18 kts | 269° |
| 2026-05-05 17:49 | 45.03756 | 39.15532 | 105 ft | 17 kts | 292° |
| 2026-05-05 17:49 | 45.03802 | 39.15374 | 105 ft | 17 kts | 292° |
| 2026-05-05 17:49 | 45.03834 | 39.15239 | 106 ft | 10 kts | 272° |
| 2026-05-05 17:49 | 45.03813 | 39.15150 | 106 ft | 10 kts | 239° |
| 2026-05-05 17:50 | 45.03758 | 39.15015 | 105 ft | 21 kts | 240° |
| 2026-05-05 17:50 | 45.03674 | 39.14802 | 106 ft | 27 kts | 241° |
| 2026-05-05 17:50 | 45.03582 | 39.14570 | 106 ft | 24 kts | 240° |
| 2026-05-05 17:50 | 45.03505 | 39.14378 | 106 ft | 22 kts | 241° |
| 2026-05-05 17:51 | 45.03451 | 39.14240 | 106 ft | 12 kts | 241° |
| 2026-05-05 17:51 | 45.03427 | 39.14171 | 106 ft | 6 kts | 263° |
| 2026-05-05 17:51 | 45.03451 | 39.14136 | 106 ft | 5 kts | 328° |
| 2026-05-05 17:51 | 45.03467 | 39.14124 | 106 ft | 1 kts | 332° |
| 2026-05-05 17:52 | 45.03469 | 39.14123 | 106 ft | 0 kts | 332° |